Time;durP1;ratioP1;P1;durP2;ratioP2;P2;SDS_P1;SDS_P2;PMS_P1;PMS_P2;Temp;Humidity;BMP_temperature;BMP_pressure;BME280_temperature;BME280_humidity;BME280_pressure;Samples;Min_cycle;Max_cycle;Signal;HPM_P1;HPM_P2
2021/12/25 00:00:20;;;;;;;28.00;15.43;;;;;;;0.53;100.00;97333.40;1668650;84;21167;-73
2021/12/25 00:02:56;;;;;;;27.67;15.80;;;;;;;0.53;100.00;97339.59;1657966;84;21164;-72
2021/12/25 00:05:29;;;;;;;24.52;14.28;;;;;;;0.54;100.00;97328.25;1676504;84;20951;-73
2021/12/25 00:07:59;;;;;;;28.12;15.63;;;;;;;0.57;100.00;97328.44;1672901;85;21459;-73
2021/12/25 00:10:35;;;;;;;26.90;15.55;;;;;;;0.59;100.00;97339.70;1660672;83;21023;-73
2021/12/25 00:13:07;;;;;;;28.17;15.15;;;;;;;0.61;100.00;97323.20;1658665;85;21000;-73
2021/12/25 00:15:42;;;;;;;22.35;13.35;;;;;;;0.64;100.00;97323.39;1673817;84;21241;-73
2021/12/25 00:18:09;;;;;;;32.03;16.05;;;;;;;0.65;100.00;97320.93;1660756;84;21111;-72
2021/12/25 00:20:42;;;;;;;32.00;14.73;;;;;;;0.66;100.00;97319.03;1654284;84;20898;-73
2021/12/25 00:23:10;;;;;;;25.80;14.95;;;;;;;0.68;100.00;97314.67;1657098;85;21069;-72
2021/12/25 00:25:46;;;;;;;34.95;15.30;;;;;;;0.70;100.00;97323.27;1663651;84;20923;-72
2021/12/25 00:36:19;;;;;;;25.85;14.05;;;;;;;0.79;100.00;97325.48;1659422;84;21077;-72
2021/12/25 00:38:48;;;;;;;23.27;12.93;;;;;;;0.82;100.00;97328.38;1681080;84;20950;-71
2021/12/25 00:41:22;;;;;;;26.10;13.22;;;;;;;0.86;100.00;97332.61;1673680;84;21990;-71
2021/12/25 00:43:55;;;;;;;25.92;14.07;;;;;;;0.90;100.00;97333.05;1672993;83;20911;-71
2021/12/25 00:46:32;;;;;;;22.32;13.60;;;;;;;0.92;100.00;97324.64;1652328;85;21000;-70
2021/12/25 00:49:03;;;;;;;24.02;13.68;;;;;;;0.93;100.00;97327.03;1674502;84;21042;-71
2021/12/25 00:51:35;;;;;;;25.30;13.55;;;;;;;0.94;100.00;97319.17;1672812;84;21050;-70
2021/12/25 00:54:15;;;;;;;22.95;13.45;;;;;;;0.97;100.00;97301.55;1662280;85;20956;-69
2021/12/25 00:56:43;;;;;;;25.57;13.83;;;;;;;0.99;100.00;97322.30;1666013;84;21025;-71
2021/12/25 00:59:19;;;;;;;21.57;12.03;;;;;;;0.99;100.00;97315.00;1649249;85;20968;-70
2021/12/25 01:01:51;;;;;;;21.60;11.80;;;;;;;1.02;100.00;97312.79;1660768;84;21191;-70
2021/12/25 01:04:32;;;;;;;20.45;12.18;;;;;;;1.04;100.00;97320.83;1656764;85;21517;-70
2021/12/25 01:06:54;;;;;;;23.62;13.95;;;;;;;1.07;100.00;97320.77;1646988;86;21511;-70
2021/12/25 01:09:23;;;;;;;27.93;12.95;;;;;;;1.08;100.00;97321.81;1697850;83;20994;-69
2021/12/25 01:11:57;;;;;;;22.37;12.67;;;;;;;1.09;100.00;97319.36;1684075;83;20950;-70
2021/12/25 01:14:38;;;;;;;23.60;13.28;;;;;;;1.12;100.00;97322.80;1679701;84;21285;-69
2021/12/25 01:20:05;;;;;;;20.75;12.73;;;;;;;1.16;100.00;97317.54;1687870;83;21223;-70
2021/12/25 01:22:44;;;;;;;;;;;;;;;1.18;100.00;97316.68;1665178;84;20968;-70
2021/12/25 01:30:23;;;;;;;20.12;10.50;;;;;;;1.27;100.00;97325.09;1671973;84;21033;-73
2021/12/25 01:50:03;;;;;;;17.35;9.40;;;;;;;1.71;100.00;97335.58;1690136;83;21038;-73
2021/12/25 01:52:33;;;;;;;16.77;9.10;;;;;;;1.75;100.00;97333.81;1709794;83;21018;-73
2021/12/25 01:55:11;;;;;;;15.93;8.65;;;;;;;1.78;100.00;97337.25;1690180;83;21498;-72
2021/12/25 01:57:43;;;;;;;17.90;8.80;;;;;;;1.83;100.00;97337.67;1690936;83;21454;-71
2021/12/25 02:00:23;;;;;;;16.02;9.33;;;;;;;1.86;100.00;97347.31;1651946;85;21751;-72
2021/12/25 02:02:56;;;;;;;15.85;8.55;;;;;;;1.88;100.00;97344.30;1657850;85;20920;-72
2021/12/25 02:05:25;;;;;;;12.18;7.28;;;;;;;1.92;100.00;97342.56;1670205;83;20998;-72
2021/12/25 02:07:55;;;;;;;16.10;8.58;;;;;;;1.99;100.00;97347.77;1659583;85;21074;-71
2021/12/25 02:10:23;;;;;;;14.33;7.97;;;;;;;2.04;100.00;97341.97;1685894;83;21018;-73
2021/12/25 02:13:05;;;;;;;11.70;6.75;;;;;;;2.05;100.00;97344.91;1666979;85;21023;-72
2021/12/25 02:15:42;;;;;;;13.55;7.25;;;;;;;2.11;100.00;97344.46;1625930;86;21029;-72
2021/12/25 02:18:19;;;;;;;12.68;6.92;;;;;;;2.15;100.00;97354.91;1653606;84;21039;-72
2021/12/25 02:21:17;;;;;;;13.53;7.37;;;;;;;2.19;100.00;97352.36;1668096;84;21010;-73
2021/12/25 02:23:44;;;;;;;10.53;6.10;;;;;;;2.24;100.00;97360.34;1685721;84;21133;-72
2021/12/25 02:26:24;;;;;;;12.50;7.37;;;;;;;2.26;100.00;97363.53;1686997;83;21234;-72
2021/12/25 02:28:54;;;;;;;10.38;6.15;;;;;;;2.31;100.00;97360.68;1646251;86;21592;-70
2021/12/25 02:31:26;;;;;;;12.63;6.47;;;;;;;2.32;100.00;97366.31;1677863;84;20997;-72
2021/12/25 02:33:55;;;;;;;12.05;6.55;;;;;;;2.34;100.00;97387.09;1689720;83;20987;-74
2021/12/25 02:36:25;;;;;;;12.28;6.42;;;;;;;2.35;100.00;97383.28;1691885;83;21505;-74
2021/12/25 02:38:55;;;;;;;11.50;6.92;;;;;;;2.36;100.00;97382.16;1655852;86;22146;-73
2021/12/25 02:41:28;;;;;;;13.53;6.15;;;;;;;2.38;100.00;97381.84;1651851;84;21078;-73
2021/12/25 02:44:01;;;;;;;12.47;6.40;;;;;;;2.38;100.00;97381.84;1635665;86;20892;-74
2021/12/25 02:46:35;;;;;;;15.48;6.28;;;;;;;2.39;100.00;97396.98;1669486;85;21027;-76
2021/12/25 02:49:17;;;;;;;10.93;6.62;;;;;;;2.40;100.00;97404.80;1633731;86;21018;-76
2021/12/25 02:51:51;;;;;;;9.03;5.50;;;;;;;2.43;100.00;97408.23;1638284;86;20964;-72
2021/12/25 02:54:25;;;;;;;11.45;6.22;;;;;;;2.48;100.00;97412.70;1638628;86;21036;-73
2021/12/25 02:56:53;;;;;;;8.93;5.30;;;;;;;2.50;100.00;97408.56;1647484;86;20969;-73
2021/12/25 02:59:22;;;;;;;9.15;5.40;;;;;;;2.52;99.63;97411.77;1657830;85;21062;-73
2021/12/25 03:01:57;;;;;;;10.48;5.65;;;;;;;2.55;99.84;97417.90;1620105;85;21084;-71
2021/12/25 03:04:28;;;;;;;9.25;6.08;;;;;;;2.55;99.73;97415.75;1689562;83;21140;-71
2021/12/25 03:06:57;;;;;;;;;;;;;;;2.55;99.43;97422.52;1714577;83;20947;-69
2021/12/25 03:09:28;;;;;;;9.85;5.37;;;;;;;2.56;99.43;97434.39;1697109;83;20482;-70
2021/12/25 03:11:57;;;;;;;9.90;5.10;;;;;;;2.52;99.46;97437.48;1715364;83;21509;-70
2021/12/25 03:14:36;;;;;;;7.62;4.97;;;;;;;2.51;99.61;97440.52;1682143;84;21446;-70
2021/12/25 03:17:06;;;;;;;12.20;5.58;;;;;;;2.51;99.52;97426.41;1646361;85;21880;-70
2021/12/25 03:19:38;;;;;;;10.72;5.28;;;;;;;2.53;99.64;97448.56;1664765;85;21557;-70
2021/12/25 03:22:09;;;;;;;9.75;5.72;;;;;;;2.52;99.59;97449.67;1687413;84;20946;-70
2021/12/25 03:24:43;;;;;;;9.98;4.90;;;;;;;2.52;99.67;97457.00;1652174;84;20989;-70
2021/12/25 03:27:17;;;;;;;8.03;5.30;;;;;;;2.54;99.75;97472.39;1678289;84;21578;-70
2021/12/25 03:29:51;;;;;;;10.10;5.60;;;;;;;2.54;99.55;97471.83;1673954;85;21165;-72
2021/12/25 03:32:29;;;;;;;12.43;5.47;;;;;;;2.53;99.70;97472.95;1663994;85;21445;-73
2021/12/25 03:34:54;;;;;;;8.95;4.87;;;;;;;2.51;99.71;97491.97;1687469;83;20943;-71
2021/12/25 03:37:26;;;;;;;8.00;4.80;;;;;;;2.50;99.82;97496.59;1651339;86;20930;-71
2021/12/25 03:39:55;;;;;;;;;;;;;;;2.50;99.90;97502.01;1689448;84;21025;-72
2021/12/25 03:42:25;;;;;;;7.83;4.60;;;;;;;2.52;100.00;97495.72;1691150;83;21197;-69
2021/12/25 03:45:04;;;;;;;12.03;4.67;;;;;;;2.50;100.00;97505.27;1674513;83;20999;-72
2021/12/25 03:47:35;;;;;;;7.92;4.75;;;;;;;2.49;100.00;97514.51;1650877;85;20960;-71
2021/12/25 03:53:10;;;;;;;7.42;4.60;;;;;;;2.47;100.00;97528.36;1689215;81;21026;-71
2021/12/25 03:58:30;;;;;;;7.55;4.72;;;;;;;2.43;100.00;97565.85;1642658;86;21013;-75
2021/12/25 04:01:03;;;;;;;10.13;5.17;;;;;;;2.41;100.00;97567.52;1643865;85;20969;-77
2021/12/25 04:03:48;;;;;;;8.90;4.53;;;;;;;2.41;100.00;97571.58;1646931;86;21533;-76
2021/12/25 04:06:15;;;;;;;7.10;4.10;;;;;;;2.41;100.00;97584.32;1658957;85;20950;-76
2021/12/25 04:08:51;;;;;;;6.50;4.30;;;;;;;2.36;100.00;97577.13;1658716;85;21144;-76
2021/12/25 04:11:27;;;;;;;7.28;4.05;;;;;;;2.30;100.00;97584.61;1661839;85;20950;-76
2021/12/25 04:13:52;;;;;;;7.53;4.20;;;;;;;2.24;100.00;97587.20;1654652;85;20970;-75
2021/12/25 04:16:20;;;;;;;8.80;4.67;;;;;;;2.18;100.00;97606.58;1660417;85;20914;-75
2021/12/25 04:18:53;;;;;;;6.10;3.90;;;;;;;2.13;100.00;97601.28;1659388;85;21007;-75
2021/12/25 04:21:28;;;;;;;7.72;3.92;;;;;;;2.09;100.00;97613.84;1662652;85;21190;-73
2021/12/25 04:23:55;;;;;;;10.50;5.00;;;;;;;2.04;100.00;97624.78;1646731;86;21012;-73
2021/12/25 04:26:37;;;;;;;8.13;4.47;;;;;;;2.01;100.00;97638.37;1631549;86;20979;-74
2021/12/25 04:29:17;;;;;;;8.48;3.47;;;;;;;1.97;100.00;97643.59;1638071;85;21597;-72
2021/12/25 04:32:41;;;;;;;7.28;3.58;;;;;;;1.92;100.00;97646.97;1702283;83;21632;-73
2021/12/25 05:04:57;;;;;;;4.62;2.20;;;;;;;1.12;99.27;97734.11;1657371;83;21082;-72
2021/12/25 05:07:26;;;;;;;3.72;1.72;;;;;;;1.10;99.27;97741.17;1677069;84;20866;-73
2021/12/25 05:09:58;;;;;;;3.47;1.90;;;;;;;1.08;98.85;97752.02;1689156;83;20999;-73
2021/12/25 05:12:35;;;;;;;4.60;2.27;;;;;;;1.06;98.56;97760.42;1650622;85;21029;-73
2021/12/25 05:15:07;;;;;;;4.20;2.25;;;;;;;1.05;97.60;97760.17;1675335;82;21022;-72
2021/12/25 05:17:37;;;;;;;5.67;2.20;;;;;;;1.05;97.37;97750.72;1615751;86;21647;-71
2021/12/25 05:20:13;;;;;;;3.30;2.12;;;;;;;1.04;96.75;97759.13;1691193;83;21113;-70
2021/12/25 05:22:42;;;;;;;4.22;2.20;;;;;;;1.02;96.07;97762.67;1706670;83;20947;-74
2021/12/25 05:25:19;;;;;;;3.92;2.02;;;;;;;1.01;96.28;97776.73;1687023;83;20982;-74
2021/12/25 05:27:53;;;;;;;4.62;2.25;;;;;;;0.99;97.11;97768.92;1689170;83;21836;-73
2021/12/25 05:30:20;;;;;;;4.70;2.60;;;;;;;1.00;96.58;97787.28;1712426;81;20903;-73
2021/12/25 05:32:55;;;;;;;4.28;2.30;;;;;;;0.98;96.78;97804.34;1643490;83;20986;-73
2021/12/25 05:35:23;;;;;;;5.53;2.72;;;;;;;0.94;96.56;97816.83;1715017;82;20992;-73
2021/12/25 05:38:04;;;;;;;4.42;2.40;;;;;;;0.90;96.35;97827.97;1685237;83;21558;-73
2021/12/25 05:40:52;;;;;;;4.05;2.30;;;;;;;0.85;95.10;97845.61;1642733;86;21193;-73
2021/12/25 05:43:21;;;;;;;4.58;2.70;;;;;;;0.79;94.57;97838.68;1679671;83;20958;-74
2021/12/25 05:45:55;;;;;;;5.30;2.90;;;;;;;0.71;93.89;97860.41;1686281;84;20912;-72
2021/12/25 05:48:35;;;;;;;4.78;2.75;;;;;;;0.65;94.24;97856.97;1659841;85;21497;-72
2021/12/25 05:51:14;;;;;;;5.37;3.30;;;;;;;0.61;94.35;97870.80;1642252;86;21480;-71
2021/12/25 05:54:08;;;;;;;5.45;3.22;;;;;;;0.53;93.13;97890.93;1629763;86;20938;-73
2021/12/25 05:56:43;;;;;;;8.25;3.83;;;;;;;0.40;91.63;97889.75;1686155;83;21490;-74
2021/12/25 05:59:19;;;;;;;7.62;3.58;;;;;;;0.27;92.29;97880.45;1642627;84;21096;-73
2021/12/25 06:01:59;;;;;;;5.28;3.00;;;;;;;0.20;92.43;97883.25;1669190;84;21035;-75
2021/12/25 06:04:38;;;;;;;8.40;3.35;;;;;;;0.11;92.43;97869.59;1676092;84;20895;-73
2021/12/25 06:07:08;;;;;;;10.25;3.95;;;;;;;0.09;92.71;97892.55;1675221;83;21170;-73
2021/12/25 06:09:37;;;;;;;6.12;3.40;;;;;;;0.06;91.96;97891.23;1647852;86;21647;-73
2021/12/25 06:12:12;;;;;;;7.10;3.58;;;;;;;0.06;91.71;97929.01;1641510;85;21069;-70
2021/12/25 06:14:44;;;;;;;;;;;;;;;0.08;92.23;97933.58;1653496;86;21213;-70
2021/12/25 06:17:17;;;;;;;8.18;3.72;;;;;;;0.10;92.24;97931.39;1659648;86;20100;-74
2021/12/25 06:20:06;;;;;;;8.58;4.12;;;;;;;0.11;92.10;97928.95;1612753;87;20912;-74
2021/12/25 06:22:43;;;;;;;7.10;3.98;;;;;;;0.13;92.09;97913.83;1649883;86;21012;-74
2021/12/25 06:25:20;;;;;;;11.08;4.30;;;;;;;0.13;91.88;97943.51;1669297;86;20912;-73
2021/12/25 06:27:48;;;;;;;7.37;4.22;;;;;;;0.14;91.78;97958.06;1669219;86;21447;-72
2021/12/25 06:30:23;;;;;;;6.62;3.35;;;;;;;0.16;91.37;97971.27;1645018;86;21006;-72
2021/12/25 06:32:54;;;;;;;6.70;3.80;;;;;;;0.16;91.01;97972.63;1668598;86;21184;-73
2021/12/25 06:35:25;;;;;;;6.53;3.72;;;;;;;0.18;92.16;97983.94;1659992;85;21515;-72
2021/12/25 06:37:56;;;;;;;8.53;4.62;;;;;;;0.18;91.25;97978.53;1626563;86;20957;-72
2021/12/25 06:40:40;;;;;;;8.55;4.33;;;;;;;0.17;90.99;97975.58;1641048;87;20933;-71
2021/12/25 06:43:07;;;;;;;6.37;3.45;;;;;;;0.18;92.23;97986.63;1657016;85;20895;-71
2021/12/25 06:45:33;;;;;;;11.57;4.80;;;;;;;0.19;92.20;97989.05;1663023;85;21489;-73
2021/12/25 06:48:01;;;;;;;8.00;4.47;;;;;;;0.20;91.16;97983.10;1651406;86;21075;-77
2021/12/25 06:50:46;;;;;;;9.13;4.83;;;;;;;0.19;91.40;97982.30;1671326;84;21042;-75
2021/12/25 06:53:20;;;;;;;11.97;5.80;;;;;;;0.20;90.93;97996.59;1658374;84;20948;-71
2021/12/25 06:55:48;;;;;;;10.82;6.45;;;;;;;0.19;90.78;97997.69;1706731;83;20884;-70
2021/12/25 06:58:19;;;;;;;9.70;5.37;;;;;;;0.18;91.01;98003.63;1719362;83;21548;-74
2021/12/25 07:00:45;;;;;;;10.58;5.15;;;;;;;0.18;90.49;98010.92;1692949;83;20991;-73
2021/12/25 07:03:12;;;;;;;9.93;5.35;;;;;;;0.19;90.57;97990.94;1656093;85;21105;-73
2021/12/25 07:05:58;;;;;;;9.48;5.08;;;;;;;0.19;90.36;98028.17;1699773;83;21012;-71
2021/12/25 07:08:29;;;;;;;10.23;5.17;;;;;;;0.19;90.75;98029.52;1691283;83;27385;-73
2021/12/25 07:11:15;;;;;;;10.70;5.65;;;;;;;0.21;90.79;98028.70;1696975;83;21107;-73
2021/12/25 07:13:53;;;;;;;10.35;5.33;;;;;;;0.21;90.42;98031.39;1675471;84;21002;-72
2021/12/25 07:16:40;;;;;;;9.78;5.05;;;;;;;0.21;90.48;98046.23;1646917;85;33593;-72
2021/12/25 07:19:15;;;;;;;10.70;5.47;;;;;;;0.20;89.51;98047.33;1656071;85;21041;-73
2021/12/25 07:21:48;;;;;;;9.03;5.25;;;;;;;0.19;89.62;98067.85;1635404;86;21180;-74
2021/12/25 07:24:29;;;;;;;9.45;5.03;;;;;;;0.19;90.40;98078.10;1656402;85;21614;-78
2021/12/25 07:27:05;;;;;;;9.75;5.72;;;;;;;0.21;90.34;98083.22;1634264;86;21019;-72
2021/12/25 07:29:40;;;;;;;8.70;5.05;;;;;;;0.27;90.51;98084.78;1628852;86;21066;-72
2021/12/25 07:32:15;;;;;;;9.53;5.97;;;;;;;0.34;90.63;98089.30;1627659;86;21432;-72
2021/12/25 07:34:45;;;;;;;10.88;6.00;;;;;;;0.38;90.45;98089.00;1660405;85;20966;-72
2021/12/25 07:37:15;;;;;;;11.20;5.67;;;;;;;0.41;90.30;98106.52;1645233;86;21558;-72
2021/12/25 07:39:53;;;;;;;11.60;5.80;;;;;;;0.43;90.33;98101.09;1675565;84;21140;-73
2021/12/25 07:42:24;;;;;;;11.15;5.78;;;;;;;0.44;89.12;98098.66;1698030;83;20927;-76
2021/12/25 07:45:11;;;;;;;11.00;6.08;;;;;;;0.48;89.17;98115.90;1672875;84;21011;-78
2021/12/25 07:47:56;;;;;;;11.53;6.53;;;;;;;0.51;89.07;98122.08;1680037;84;21066;-78
2021/12/25 07:50:19;;;;;;;10.80;5.83;;;;;;;0.52;88.70;98118.29;1684220;83;21011;-77
2021/12/25 07:52:50;;;;;;;10.10;6.05;;;;;;;0.55;89.00;98114.22;1707695;83;21486;-75
2021/12/25 07:55:23;;;;;;;9.25;5.83;;;;;;;0.61;88.81;98119.80;1678160;84;21070;-75
2021/12/25 07:58:01;;;;;;;12.43;6.35;;;;;;;0.67;87.42;98110.55;1665043;84;21029;-78
2021/12/25 08:00:30;;;;;;;14.38;7.15;;;;;;;0.70;87.87;98123.48;1686015;83;21045;-75
2021/12/25 08:03:07;;;;;;;14.20;6.87;;;;;;;0.77;88.20;98123.95;1665178;84;21080;-72
2021/12/25 08:05:39;;;;;;;10.03;5.47;;;;;;;1.03;87.50;98115.57;1684952;82;20990;-74
2021/12/25 08:08:14;;;;;;;11.20;6.08;;;;;;;1.44;85.90;98113.14;1690010;83;21038;-80
2021/12/25 08:10:44;;;;;;;9.90;5.40;;;;;;;1.72;82.28;98114.91;1680155;83;21567;-78
2021/12/25 08:13:17;;;;;;;11.45;6.47;;;;;;;1.94;81.49;98131.33;1688671;83;21076;-81
2021/12/25 08:15:50;;;;;;;9.83;5.78;;;;;;;2.05;80.27;98147.42;1699654;81;22176;-78
2021/12/25 08:18:20;;;;;;;;;;;;;;;1.96;79.34;98145.38;1692917;83;21063;-76
2021/12/25 08:20:57;;;;;;;11.50;5.95;;;;;;;1.76;79.45;98153.78;1677722;83;20169;-75
2021/12/25 08:23:54;;;;;;;33.23;11.15;;;;;;;1.52;81.18;98175.50;1692484;83;20954;-78
2021/12/25 08:26:40;;;;;;;10.20;5.57;;;;;;;1.29;85.08;98189.30;1668182;85;20903;-79
2021/12/25 08:29:29;;;;;;;18.95;8.90;;;;;;;0.88;88.11;98181.39;1620257;86;20934;-79
2021/12/25 08:32:17;;;;;;;21.87;9.25;;;;;;;0.49;89.95;98185.02;1669897;84;20893;-78
2021/12/25 08:35:07;;;;;;;21.65;9.13;;;;;;;0.27;91.18;98184.65;1624088;87;21543;-78
2021/12/25 08:37:40;;;;;;;20.85;9.35;;;;;;;0.13;91.68;98186.37;1625506;87;21196;-73
2021/12/25 08:40:10;;;;;;;18.62;7.62;;;;;;;0.05;91.07;98183.72;1639572;83;20853;-76
2021/12/25 08:42:36;;;;;;;20.35;7.42;;;;;;;-0.03;89.89;98197.30;1705220;83;21758;-82
2021/12/25 08:45:06;;;;;;;17.85;8.08;;;;;;;-0.08;88.34;98195.98;1702514;83;20983;-80
2021/12/25 08:47:36;;;;;;;13.95;7.42;;;;;;;-0.10;87.80;98206.78;1652881;85;20913;-70
2021/12/25 08:50:08;;;;;;;15.95;8.50;;;;;;;-0.13;86.66;98204.64;1659233;85;21609;-69
2021/12/25 08:52:44;;;;;;;14.70;8.15;;;;;;;-0.15;86.32;98201.41;1638460;86;21144;-72
2021/12/25 08:55:11;;;;;;;14.80;7.35;;;;;;;-0.15;87.57;98199.52;1703924;83;21166;-72
2021/12/25 08:57:43;;;;;;;18.00;7.90;;;;;;;-0.12;85.66;98207.59;1696538;83;20935;-74
2021/12/25 09:00:17;;;;;;;18.82;8.98;;;;;;;-0.12;85.41;98207.06;1686412;83;21024;-73
2021/12/25 09:02:45;;;;;;;14.47;7.47;;;;;;;-0.06;86.25;98210.53;1672906;84;21114;-73
2021/12/25 09:05:16;;;;;;;12.88;7.50;;;;;;;0.00;85.62;98205.38;1689820;84;20989;-73
2021/12/25 09:07:45;;;;;;;12.05;7.33;;;;;;;0.03;85.19;98219.63;1629552;86;21165;-77
2021/12/25 09:10:16;;;;;;;12.60;6.15;;;;;;;0.06;85.41;98211.52;1687847;84;21009;-71
2021/12/25 09:12:50;;;;;;;14.55;7.53;;;;;;;0.08;84.91;98222.29;1674564;84;20991;-71
2021/12/25 09:15:21;;;;;;;13.55;6.83;;;;;;;0.10;85.20;98231.45;1628899;85;21068;-71
2021/12/25 09:17:51;;;;;;;15.40;8.00;;;;;;;0.11;85.88;98235.77;1687265;83;21596;-80
2021/12/25 09:20:19;;;;;;;12.63;7.20;;;;;;;0.11;85.97;98227.67;1622505;86;21815;-78
2021/12/25 09:22:50;;;;;;;18.23;8.20;;;;;;;0.11;85.86;98233.88;1656081;85;21525;-77
2021/12/25 09:25:19;;;;;;;15.63;6.87;;;;;;;0.09;86.42;98238.74;1636509;86;20971;-76
2021/12/25 09:27:49;;;;;;;14.25;7.30;;;;;;;0.08;86.09;98244.42;1660677;85;20963;-75
2021/12/25 09:30:15;;;;;;;18.35;8.83;;;;;;;0.10;86.61;98243.59;1662813;85;20997;-71
2021/12/25 09:32:46;;;;;;;15.55;8.00;;;;;;;0.18;87.22;98243.01;1678140;83;20990;-74
2021/12/25 09:35:14;;;;;;;15.75;8.13;;;;;;;0.31;86.95;98232.39;1661728;85;21735;-74
2021/12/25 09:37:45;;;;;;;15.98;7.83;;;;;;;0.41;86.23;98239.61;1662406;85;21438;-70
2021/12/25 09:40:18;;;;;;;14.33;7.53;;;;;;;0.50;85.99;98226.32;1643860;86;21173;-70
2021/12/25 09:42:51;;;;;;;13.38;7.12;;;;;;;0.57;85.27;98247.87;1679789;84;21125;-69
2021/12/25 09:45:25;;;;;;;14.68;7.17;;;;;;;0.61;84.95;98256.18;1630654;85;21121;-69
2021/12/25 09:47:57;;;;;;;16.77;7.72;;;;;;;0.56;83.56;98253.55;1662228;85;20989;-71
2021/12/25 09:50:29;;;;;;;13.28;6.58;;;;;;;0.50;84.39;98260.88;1660217;85;21220;-69
2021/12/25 09:52:56;;;;;;;;;;;;;;;0.49;84.06;98261.16;1662396;84;21517;-71
2021/12/25 09:55:24;;;;;;;14.58;7.37;;;;;;;0.46;83.31;98254.97;1632883;86;20094;-71
2021/12/25 09:57:59;;;;;;;15.63;8.33;;;;;;;0.45;84.20;98259.56;1608015;87;20926;-71
2021/12/25 10:00:31;;;;;;;;;;;;;;;0.48;83.71;98271.70;1671482;83;20908;-71
2021/12/25 10:03:04;;;;;;;17.80;8.23;;;;;;;0.55;84.06;98256.80;1676069;83;20160;-72
2021/12/25 10:05:43;;;;;;;12.60;6.50;;;;;;;0.72;84.70;98242.86;1670936;84;28034;-75
2021/12/25 10:08:21;;;;;;;10.73;6.60;;;;;;;0.90;83.85;98251.62;1662219;85;20962;-70
2021/12/25 10:11:02;;;;;;;15.95;8.30;;;;;;;0.99;82.58;98272.88;1666666;83;22158;-77
2021/12/25 10:13:38;;;;;;;15.25;7.45;;;;;;;0.97;82.29;98262.09;1684520;83;21406;-70
2021/12/25 10:16:29;;;;;;;15.75;7.95;;;;;;;0.90;81.89;98257.56;1634064;86;21014;-74
2021/12/25 10:19:19;;;;;;;18.75;8.55;;;;;;;0.85;81.44;98256.25;1668763;84;21502;-75
2021/12/25 10:22:05;;;;;;;17.92;9.50;;;;;;;0.77;82.70;98261.72;1689806;82;21585;-75
2021/12/25 10:24:41;;;;;;;17.32;8.78;;;;;;;0.74;82.20;98254.19;1641448;84;21171;-76
2021/12/25 10:27:20;;;;;;;18.60;9.53;;;;;;;0.68;81.68;98259.91;1629161;85;21558;-75
2021/12/25 10:29:49;;;;;;;19.77;9.60;;;;;;;0.63;81.62;98269.66;1668939;83;20966;-74
2021/12/25 10:32:27;;;;;;;16.45;8.43;;;;;;;0.51;81.15;98269.78;1691483;83;20922;-72
2021/12/25 10:34:55;;;;;;;17.98;8.68;;;;;;;0.43;81.62;98267.14;1702071;83;22288;-75
2021/12/25 10:37:30;;;;;;;17.85;8.58;;;;;;;0.37;81.25;98272.31;1673314;83;21184;-74
2021/12/25 10:39:59;;;;;;;17.92;9.28;;;;;;;0.31;81.73;98273.42;1694873;83;21114;-70
2021/12/25 10:42:31;;;;;;;13.48;7.45;;;;;;;0.29;82.18;98272.36;1669193;84;21477;-71
2021/12/25 10:45:07;;;;;;;14.00;7.55;;;;;;;0.27;81.51;98276.42;1672296;84;20939;-72
2021/12/25 10:47:37;;;;;;;15.72;7.53;;;;;;;0.18;80.80;98281.59;1629521;85;21134;-69
2021/12/25 10:50:15;;;;;;;16.93;8.35;;;;;;;0.11;81.75;98293.78;1661580;84;20967;-72
2021/12/25 10:52:48;;;;;;;14.98;8.33;;;;;;;0.09;81.47;98302.70;1635156;86;20965;-71
2021/12/25 10:55:22;;;;;;;12.45;6.33;;;;;;;0.04;80.92;98312.17;1633313;86;20955;-73
2021/12/25 10:58:01;;;;;;;15.55;8.20;;;;;;;0.00;81.56;98318.69;1610438;86;21129;-73
2021/12/25 11:00:36;;;;;;;13.20;7.03;;;;;;;0.02;82.13;98314.34;1648249;86;20952;-72
2021/12/25 11:03:05;;;;;;;15.10;8.25;;;;;;;0.04;81.34;98322.42;1634504;87;21791;-73
2021/12/25 11:05:36;;;;;;;17.95;7.47;;;;;;;0.05;81.79;98311.89;1632644;87;20916;-71
2021/12/25 11:08:07;;;;;;;19.50;8.75;;;;;;;0.08;81.68;98316.73;1650578;85;21027;-71
2021/12/25 11:10:46;;;;;;;;;;;;;;;0.11;81.62;98318.88;1666503;84;21122;-71
2021/12/25 11:13:18;;;;;;;;;;;;;;;0.17;81.67;98322.36;1664462;85;20129;-73
2021/12/25 11:15:47;;;;;;;;;;;;;;;0.23;81.00;98318.01;1644779;87;21160;-71
2021/12/25 11:18:15;;;;;;;;;;;;;;;0.28;80.31;98324.73;1648913;86;20157;-75
2021/12/25 11:20:42;;;;;;;;;;;;;;;0.29;79.70;98326.34;1655281;86;20113;-73
2021/12/25 11:23:10;;;;;;;;;;;;;;;0.31;78.89;98317.42;1653395;86;20092;-77
2021/12/25 11:25:37;;;;;;;;;;;;;;;0.27;77.98;98342.02;1650211;87;20465;-73
2021/12/25 11:28:07;;;;;;;;;;;;;;;0.24;77.71;98345.80;1654369;85;21134;-73
2021/12/25 11:30:36;;;;;;;;;;;;;;;0.25;80.23;98356.87;1668005;85;20487;-73
2021/12/25 11:33:02;;;;;;;;;;;;;;;0.33;79.09;98357.64;1673992;85;20129;-77
2021/12/25 11:35:29;;;;;;;;;;;;;;;0.38;77.76;98354.91;1667595;85;20603;-72
2021/12/25 11:37:58;;;;;;;;;;;;;;;0.41;77.76;98357.06;1666989;85;20420;-73
2021/12/25 11:40:27;;;;;;;;;;;;;;;0.48;77.06;98345.95;1660831;85;21201;-75
2021/12/25 11:42:57;;;;;;;;;;;;;;;0.52;77.88;98359.16;1698328;83;20176;-75
2021/12/25 11:45:28;;;;;;;;;;;;;;;0.60;78.65;98368.80;1704538;82;20126;-77
2021/12/25 11:48:01;;;;;;;;;;;;;;;0.64;78.64;98369.86;1698063;82;20148;-75
2021/12/25 11:50:34;;;;;;;;;;;;;;;0.70;77.09;98381.98;1698088;83;20418;-70
2021/12/25 11:56:14;;;;;;;;;;;;;;;0.48;76.49;98394.02;1700701;83;20097;-71
2021/12/25 11:58:44;;;;;;;;;;;;;;;0.43;75.66;98396.73;1708759;83;20101;-76
2021/12/25 12:01:37;;;;;;;;;;;;;;;0.39;76.39;98391.63;1713601;81;20109;-76
2021/12/25 12:04:13;;;;;;;;;;;;;;;0.33;75.31;98401.64;1699972;81;20428;-82
2021/12/25 12:06:53;;;;;;;;;;;;;;;0.29;75.08;98388.43;1695649;83;21142;-71
2021/12/25 12:09:27;;;;;;;;;;;;;;;0.34;75.00;98376.80;1711366;83;20113;-71
2021/12/25 12:12:11;;;;;;;;;;;;;;;0.37;74.39;98393.80;1678091;83;20131;-71
2021/12/25 12:15:13;;;;;;;;;;;;;;;0.27;73.73;98405.45;1693826;84;20504;-70
2021/12/25 12:20:16;;;;;;;;;;;;;;;0.50;74.95;98394.55;1631750;86;20113;-70
2021/12/25 12:28:02;;;;;;;;;;;;;;;1.29;73.97;98421.81;1639423;85;20121;-69
2021/12/25 12:30:42;;;;;;;;;;;;;;;1.15;72.05;98424.92;1694467;81;20456;-72
2021/12/25 12:33:24;;;;;;;;;;;;;;;0.97;72.61;98418.83;1688123;83;21109;-71
2021/12/25 12:35:55;;;;;;;;;;;;;;;0.71;70.73;98437.63;1672670;84;20128;-70
2021/12/25 12:41:39;;;;;;;;;;;;;;;0.26;72.27;98467.80;1681935;84;20617;-70
2021/12/25 12:44:11;;;;;;;;;;;;;;;0.09;71.80;98472.16;1665810;84;20187;-69
2021/12/25 12:46:58;;;;;;;;;;;;;;;-0.11;71.29;98463.59;1643673;85;20599;-71
2021/12/25 12:49:34;;;;;;;;;;;;;;;-0.19;72.10;98460.10;1693793;83;20458;-70
2021/12/25 12:52:19;;;;;;;;;;;;;;;0.01;70.65;98449.78;1643783;83;20151;-77
2021/12/25 12:55:03;;;;;;;;;;;;;;;0.22;68.83;98447.84;1715416;83;21981;-69
2021/12/25 12:57:44;;;;;;;;;;;;;;;0.19;67.59;98447.85;1679671;83;20220;-69
2021/12/25 13:00:17;;;;;;;;;;;;;;;0.01;66.39;98487.56;1688911;83;21106;-73
2021/12/25 13:02:47;;;;;;;;;;;;;;;-0.26;66.38;98500.56;1708472;83;20621;-71
2021/12/25 13:05:22;;;;;;;;;;;;;;;-0.44;68.11;98517.55;1700447;83;20428;-71
2021/12/25 13:07:52;;;;;;;;;;;;;;;-0.55;68.43;98516.47;1697552;83;20347;-72
2021/12/25 13:10:29;;;;;;;;;;;;;;;-0.67;69.09;98504.62;1689076;83;20440;-72
2021/12/25 13:12:57;;;;;;;;;;;;;;;-0.69;70.15;98504.08;1658671;85;23330;-71
2021/12/25 13:15:28;;;;;;;;;;;;;;;-0.66;70.06;98491.41;1668196;84;20103;-71
2021/12/25 13:17:57;;;;;;;;;;;;;;;-0.75;69.01;98484.39;1676974;84;20164;-71
2021/12/25 13:20:36;;;;;;;;;;;;;;;-0.85;67.57;98492.47;1678277;84;20252;-71
2021/12/25 13:23:05;;;;;;;;;;;;;;;-0.94;67.99;98494.60;1690156;84;20123;-82
2021/12/25 13:25:34;;;;;;;;;;;;;;;-1.01;68.62;98524.48;1687314;84;21498;-71
2021/12/25 13:28:02;;;;;;;;;;;;;;;-1.07;70.22;98533.09;1686955;84;20178;-71
2021/12/25 13:30:31;;;;;;;;;;;;;;;-1.10;69.81;98531.45;1682608;84;20132;-70
2021/12/25 13:33:10;;;;;;;;;;;;;;;-1.15;70.50;98528.75;1681109;84;20087;-72
2021/12/25 13:35:37;;;;;;;;;;;;;;;-1.15;71.06;98524.70;1664617;84;20151;-71
2021/12/25 13:38:04;;;;;;;;;;;;;;;-1.20;70.12;98528.77;1687436;84;21129;-70
2021/12/25 13:40:31;;;;;;;;;;;;;;;-1.23;70.42;98537.37;1675740;84;20143;-74
2021/12/25 13:43:08;;;;;;;;;;;;;;;-1.27;70.85;98538.42;1672223;84;20140;-72